createdAt,value
2019-04-07T00:02:38.578Z,51.80
2019-04-07T00:05:50.654Z,51.80
2019-04-07T00:08:33.020Z,51.80
2019-04-07T00:11:33.939Z,51.70
2019-04-07T00:14:06.404Z,51.80
2019-04-07T00:16:59.744Z,51.80
2019-04-07T00:22:42.575Z,51.90
2019-04-07T00:26:19.130Z,51.90
2019-04-07T00:29:29.745Z,52.00
2019-04-07T00:32:02.543Z,51.90
2019-04-07T00:35:23.165Z,51.90
2019-04-07T00:38:36.462Z,51.90
2019-04-07T00:43:54.228Z,51.90
2019-04-07T00:46:49.005Z,51.80
2019-04-07T00:49:40.163Z,51.90
2019-04-07T00:58:30.199Z,52.00
2019-04-07T01:01:09.006Z,51.90
2019-04-07T01:03:43.030Z,52.00
2019-04-07T01:06:24.198Z,52.00
2019-04-07T01:08:56.916Z,52.00
2019-04-07T01:11:29.028Z,52.10
2019-04-07T01:14:08.222Z,52.20
2019-04-07T01:16:45.523Z,52.30
2019-04-07T01:19:15.552Z,52.40
2019-04-07T01:21:46.899Z,52.30
2019-04-07T01:24:26.852Z,52.40
2019-04-07T01:26:58.990Z,52.40
2019-04-07T01:29:53.168Z,52.40
2019-04-07T01:32:52.307Z,52.40
2019-04-07T01:35:49.178Z,52.40
2019-04-07T01:38:25.781Z,52.50
2019-04-07T01:44:28.370Z,52.60
2019-04-07T01:47:26.715Z,52.60
2019-04-07T01:50:31.173Z,52.60
2019-04-07T01:53:26.511Z,52.70
2019-04-07T01:56:41.630Z,52.70
2019-04-07T01:59:31.066Z,52.80
2019-04-07T02:02:17.505Z,52.70
2019-04-07T02:05:04.451Z,52.80
2019-04-07T02:07:46.930Z,52.70
2019-04-07T02:10:30.685Z,52.90
2019-04-07T02:13:45.113Z,52.90
2019-04-07T02:16:31.100Z,52.90
2019-04-07T02:19:30.472Z,52.90
2019-04-07T02:22:43.544Z,52.90
2019-04-07T02:25:40.572Z,53.00
2019-04-07T02:28:35.725Z,53.20
2019-04-07T02:31:23.511Z,53.10
2019-04-07T02:34:17.831Z,53.20
2019-04-07T02:37:10.043Z,53.10
2019-04-07T02:39:49.088Z,53.20
2019-04-07T02:42:42.982Z,53.10
2019-04-07T02:48:54.398Z,53.00
2019-04-07T02:51:36.107Z,53.00
2019-04-07T02:54:24.689Z,53.00
2019-04-07T03:00:52.297Z,53.30
2019-04-07T03:03:46.567Z,53.00
2019-04-07T03:06:53.051Z,52.90
2019-04-07T03:09:34.965Z,52.90
2019-04-07T03:12:21.413Z,52.80
2019-04-07T03:15:25.095Z,52.80
2019-04-07T03:18:19.994Z,52.70
2019-04-07T03:21:13.750Z,52.80
2019-04-07T03:24:17.118Z,52.80
2019-04-07T03:30:38.556Z,53.30
2019-04-07T03:33:37.914Z,52.60
2019-04-07T03:36:23.737Z,52.60
2019-04-07T03:39:22.966Z,52.60
2019-04-07T03:42:03.045Z,52.60
2019-04-07T03:44:54.799Z,52.60
2019-04-07T03:47:37.869Z,52.60
2019-04-07T03:50:31.692Z,52.60
2019-04-07T03:53:39.329Z,52.60
2019-04-07T03:56:15.884Z,52.60
2019-04-07T03:58:59.841Z,52.80
2019-04-07T04:02:01.982Z,52.70
2019-04-07T04:04:51.495Z,52.60
2019-04-07T04:07:36.955Z,52.60
2019-04-07T04:10:11.163Z,52.70
2019-04-07T04:13:20.449Z,52.70
2019-04-07T04:16:18.215Z,52.80
2019-04-07T04:18:48.353Z,52.90
2019-04-07T04:21:18.616Z,52.90
2019-04-07T04:23:48.017Z,52.80
2019-04-07T04:26:26.910Z,52.60
2019-04-07T04:28:58.257Z,52.70
2019-04-07T04:31:32.388Z,52.70
2019-04-07T04:34:03.414Z,52.80
2019-04-07T04:36:38.057Z,52.70
2019-04-07T04:39:10.502Z,52.70
2019-04-07T04:41:43.425Z,52.70
2019-04-07T04:44:14.828Z,52.60
2019-04-07T04:46:58.296Z,52.50
2019-04-07T04:49:36.128Z,52.40
2019-04-07T04:52:18.147Z,52.40
2019-04-07T04:54:53.679Z,52.40
2019-04-07T04:57:41.308Z,52.50
2019-04-07T05:00:13.596Z,52.50
2019-04-07T05:02:49.455Z,52.40
2019-04-07T05:05:25.575Z,52.40
2019-04-07T05:08:02.717Z,52.40
2019-04-07T05:10:30.142Z,52.30
2019-04-07T05:13:03.245Z,52.40
2019-04-07T05:15:39.020Z,52.30
2019-04-07T05:18:11.011Z,52.20
2019-04-07T05:20:45.248Z,52.20
2019-04-07T05:23:19.636Z,52.10
2019-04-07T05:25:56.467Z,52.10
2019-04-07T05:28:30.150Z,52.10
2019-04-07T05:31:04.458Z,52.10
2019-04-07T05:33:35.543Z,52.00
2019-04-07T05:36:06.974Z,52.00
2019-04-07T05:38:45.520Z,52.00
2019-04-07T05:41:23.494Z,52.10
2019-04-07T05:44:00.456Z,52.00
2019-04-07T05:46:42.541Z,52.00
2019-04-07T05:49:16.928Z,52.00
2019-04-07T05:51:51.074Z,52.00
2019-04-07T05:54:40.457Z,52.00
2019-04-07T05:57:15.952Z,51.80
2019-04-07T05:59:49.151Z,51.60
2019-04-07T06:02:25.598Z,51.40
2019-04-07T06:05:02.233Z,51.20
2019-04-07T06:07:36.582Z,51.10
2019-04-07T06:10:07.994Z,51.10
2019-04-07T06:12:47.155Z,50.90
2019-04-07T06:15:49.374Z,50.90
2019-04-07T06:18:25.123Z,50.80
2019-04-07T06:21:06.011Z,50.60
2019-04-07T06:23:41.699Z,50.60
2019-04-07T06:26:13.119Z,50.60
2019-04-07T06:28:46.550Z,50.60
2019-04-07T06:34:29.596Z,50.10
2019-04-07T06:37:08.167Z,49.90
2019-04-07T06:39:42.265Z,49.70
2019-04-07T06:42:16.159Z,49.50
2019-04-07T06:47:48.627Z,49.10
2019-04-07T06:50:49.386Z,49.00
2019-04-07T06:53:53.690Z,48.80
2019-04-07T06:57:12.227Z,48.80
2019-04-07T07:03:46.340Z,48.30
2019-04-07T07:07:08.875Z,48.10
2019-04-07T07:10:26.764Z,48.00
2019-04-07T07:13:32.269Z,47.80
2019-04-07T07:20:22.151Z,47.40
2019-04-07T07:23:14.090Z,47.00
2019-04-07T07:26:08.132Z,46.50
2019-04-07T07:28:43.945Z,45.50
2019-04-07T07:31:22.781Z,45.60
2019-04-07T07:34:21.193Z,45.80
2019-04-07T07:37:04.040Z,46.50
2019-04-07T07:39:42.603Z,47.80
2019-04-07T07:42:16.106Z,48.30
2019-04-07T07:44:57.082Z,48.60
2019-04-07T07:47:55.604Z,48.60
2019-04-07T07:50:28.372Z,49.00
2019-04-07T07:52:58.209Z,49.20
2019-04-07T07:55:47.655Z,49.20
2019-04-07T07:58:22.723Z,49.10
2019-04-07T08:01:17.821Z,48.80
2019-04-07T08:04:11.746Z,48.70
2019-04-07T08:06:45.287Z,48.40
2019-04-07T08:09:26.312Z,48.00
2019-04-07T08:12:04.177Z,47.60
2019-04-07T08:14:43.758Z,47.10
2019-04-07T08:18:20.724Z,46.50
2019-04-07T08:25:31.335Z,45.50
2019-04-07T08:32:33.406Z,44.50
2019-04-07T08:36:11.152Z,44.30
2019-04-07T08:47:02.516Z,44.10
2019-04-07T08:50:28.815Z,43.70
2019-04-07T08:53:25.053Z,43.60
2019-04-07T08:57:08.273Z,43.50
2019-04-07T09:00:30.063Z,43.10
2019-04-07T09:21:20.701Z,40.90
2019-04-07T09:24:53.785Z,40.30
2019-04-07T09:27:52.704Z,39.80
2019-04-07T09:30:52.516Z,39.60
2019-04-07T09:33:43.272Z,39.40
2019-04-07T09:36:55.523Z,39.20
2019-04-07T09:39:50.671Z,38.80
2019-04-07T09:42:32.439Z,38.90
2019-04-07T09:45:52.910Z,38.90
2019-04-07T09:48:48.830Z,39.20
2019-04-07T09:51:46.189Z,39.30
2019-04-07T09:54:37.345Z,39.20
2019-04-07T09:57:29.346Z,39.20
2019-04-07T10:00:36.377Z,39.20
2019-04-07T10:03:16.040Z,39.60
2019-04-07T10:06:10.112Z,39.80
2019-04-07T10:09:06.723Z,39.90
2019-04-07T10:11:58.194Z,40.00
2019-04-07T10:14:46.542Z,40.10
2019-04-07T10:17:45.127Z,39.90
2019-04-07T10:20:45.299Z,39.80
2019-04-07T10:23:21.938Z,39.50
2019-04-07T10:26:10.373Z,39.90
2019-04-07T10:28:50.725Z,40.00
2019-04-07T10:31:25.645Z,40.60
2019-04-07T10:34:14.921Z,41.00
2019-04-07T10:37:17.658Z,41.20
2019-04-07T10:40:18.193Z,41.20
2019-04-07T10:42:58.358Z,41.20
2019-04-07T10:45:42.748Z,41.30
2019-04-07T10:48:26.911Z,41.00
2019-04-07T10:51:24.218Z,40.70
2019-04-07T10:54:23.350Z,40.40
2019-04-07T10:57:12.268Z,39.90
2019-04-07T10:59:54.327Z,39.60
2019-04-07T11:02:52.949Z,38.80
2019-04-07T11:05:44.866Z,38.30
2019-04-07T11:08:32.139Z,38.10
2019-04-07T11:11:24.399Z,37.70
2019-04-07T11:14:16.139Z,37.50
2019-04-07T11:17:16.076Z,37.60
2019-04-07T11:20:03.141Z,36.50
2019-04-07T11:23:11.979Z,36.30
2019-04-07T11:26:05.325Z,35.60
2019-04-07T11:28:54.129Z,35.30
2019-04-07T11:31:43.925Z,35.20
2019-04-07T11:34:44.010Z,34.80
2019-04-07T11:37:35.338Z,34.50
2019-04-07T11:40:26.978Z,34.30
2019-04-07T11:43:22.752Z,33.30
2019-04-07T11:46:04.651Z,32.90
2019-04-07T11:49:04.291Z,33.20
2019-04-07T11:51:45.349Z,34.20
2019-04-07T11:54:40.341Z,33.70
2019-04-07T11:57:27.910Z,33.50
2019-04-07T12:00:14.634Z,33.30
2019-04-07T12:02:57.818Z,33.30
2019-04-07T12:05:52.194Z,33.70
2019-04-07T12:08:33.562Z,33.50
2019-04-07T12:11:25.181Z,33.50
2019-04-07T12:14:20.327Z,33.30
2019-04-07T12:17:04.567Z,33.20
2019-04-07T12:19:54.551Z,33.30
2019-04-07T12:22:44.754Z,33.00
2019-04-07T12:25:33.861Z,32.90
2019-04-07T12:28:17.907Z,32.90
2019-04-07T12:31:06.485Z,33.00
2019-04-07T12:34:05.128Z,33.00
2019-04-07T12:36:54.334Z,33.10
2019-04-07T12:39:41.727Z,33.30
2019-04-07T12:42:44.450Z,33.50
2019-04-07T12:45:41.729Z,33.80
2019-04-07T12:48:40.989Z,34.10
2019-04-07T12:51:19.965Z,34.40
2019-04-07T12:54:14.014Z,34.40
2019-04-07T12:57:09.331Z,34.50
2019-04-07T13:00:01.578Z,34.50
2019-04-07T13:03:07.145Z,34.70
2019-04-07T13:05:52.661Z,34.80
2019-04-07T13:08:32.166Z,35.00
2019-04-07T13:11:10.629Z,34.80
2019-04-07T13:21:13.189Z,35.20
2019-04-07T13:23:57.808Z,34.80
2019-04-07T13:27:18.611Z,34.70
2019-04-07T13:30:07.260Z,34.80
2019-04-07T13:33:17.043Z,34.70
2019-04-07T13:36:16.005Z,34.70
2019-04-07T13:39:14.035Z,34.80
2019-04-07T13:42:11.644Z,34.90
2019-04-07T13:45:04.513Z,34.70
2019-04-07T13:47:44.655Z,34.70
2019-04-07T13:50:29.899Z,34.70
2019-04-07T13:53:32.877Z,34.80
2019-04-07T13:56:25.494Z,35.00
2019-04-07T13:59:08.195Z,34.90
2019-04-07T14:01:42.472Z,34.90
2019-04-07T14:04:37.717Z,34.90
2019-04-07T14:07:42.783Z,35.00
2019-04-07T14:10:37.135Z,35.00
2019-04-07T14:13:26.754Z,35.20
2019-04-07T14:16:19.629Z,35.10
2019-04-07T14:19:30.940Z,34.90
2019-04-07T14:22:20.911Z,34.70
2019-04-07T14:25:10.137Z,34.90
2019-04-07T14:28:02.409Z,35.20
2019-04-07T14:30:42.157Z,35.20
2019-04-07T14:33:37.068Z,35.20
2019-04-07T14:36:20.684Z,35.30
2019-04-07T14:39:28.228Z,35.40
2019-04-07T14:42:35.218Z,35.70
2019-04-07T14:45:47.498Z,35.70
2019-04-07T14:48:27.227Z,35.70
2019-04-07T14:51:06.885Z,35.60
2019-04-07T14:54:01.093Z,35.30
2019-04-07T14:56:49.147Z,35.40
2019-04-07T15:02:21.533Z,34.80
2019-04-07T15:07:48.318Z,34.40
2019-04-07T15:10:21.709Z,34.10
2019-04-07T15:13:11.888Z,34.10
2019-04-07T15:19:04.212Z,34.40
2019-04-07T15:21:33.389Z,34.50
2019-04-07T15:24:07.510Z,34.70
2019-04-07T15:26:37.019Z,34.90
2019-04-07T15:29:25.363Z,34.40
2019-04-07T15:31:57.410Z,33.70
2019-04-07T15:34:32.053Z,32.70
2019-04-07T15:37:27.107Z,32.60
2019-04-07T15:40:00.984Z,32.60
2019-04-07T15:43:24.285Z,32.20
2019-04-07T15:52:52.234Z,31.20
2019-04-07T15:55:45.780Z,30.70
2019-04-07T15:58:38.674Z,30.30
2019-04-07T16:08:27.901Z,29.70
2019-04-07T16:11:40.404Z,29.70
2019-04-07T16:18:48.484Z,29.30
2019-04-07T16:21:28.903Z,29.40
2019-04-07T16:30:00.489Z,29.20
2019-04-07T16:32:32.733Z,29.20
2019-04-07T16:35:13.067Z,29.10
2019-04-07T16:37:45.745Z,28.90
2019-04-07T16:41:06.854Z,28.90
2019-04-07T16:43:39.825Z,29.30
2019-04-07T16:46:41.360Z,30.80
2019-04-07T16:49:18.890Z,32.20
2019-04-07T16:52:03.526Z,33.00
2019-04-07T16:54:41.742Z,33.70
2019-04-07T16:57:34.204Z,34.30
2019-04-07T17:03:59.461Z,35.10
2019-04-07T17:07:15.264Z,35.60
2019-04-07T17:13:37.076Z,36.60
2019-04-07T17:16:14.693Z,37.00
2019-04-07T17:19:15.150Z,37.10
2019-04-07T17:22:21.114Z,37.20
2019-04-07T17:24:58.205Z,37.90
2019-04-07T17:27:26.708Z,38.80
2019-04-07T17:30:24.277Z,39.50
2019-04-07T17:32:53.503Z,40.00
2019-04-07T17:35:32.761Z,39.50
2019-04-07T17:38:08.602Z,39.50
2019-04-07T17:40:59.945Z,39.90
2019-04-07T17:43:55.723Z,39.80
2019-04-07T17:46:47.115Z,38.90
2019-04-07T17:49:34.294Z,37.80
2019-04-07T17:52:42.897Z,37.30
2019-04-07T17:55:31.674Z,37.30
2019-04-07T17:58:15.762Z,37.20
2019-04-07T18:01:04.967Z,37.30
2019-04-07T18:03:46.288Z,37.30
2019-04-07T18:06:56.102Z,37.50
2019-04-07T18:09:40.618Z,37.70
2019-04-07T18:12:52.942Z,38.10
2019-04-07T18:15:47.287Z,38.70
2019-04-07T18:18:35.455Z,39.50
2019-04-07T18:21:48.969Z,41.10
2019-04-07T18:24:46.164Z,41.50
2019-04-07T18:27:53.989Z,42.10
2019-04-07T18:31:04.308Z,42.60
2019-04-07T18:33:55.100Z,43.40
2019-04-07T18:37:07.008Z,43.70
2019-04-07T18:39:58.122Z,44.50
2019-04-07T18:42:41.413Z,44.60
2019-04-07T18:45:28.776Z,44.90
2019-04-07T18:48:16.758Z,45.10
2019-04-07T18:51:02.933Z,45.70
2019-04-07T18:57:28.433Z,46.40
2019-04-07T19:00:15.251Z,46.80
2019-04-07T19:03:18.169Z,46.80
2019-04-07T19:06:11.608Z,47.30
2019-04-07T19:09:06.912Z,48.00
2019-04-07T19:12:04.836Z,48.50
2019-04-07T19:14:48.104Z,49.40
2019-04-07T19:17:40.478Z,49.90
2019-04-07T19:21:01.055Z,50.30
2019-04-07T19:24:03.268Z,51.10
2019-04-07T19:26:54.383Z,52.00
2019-04-07T19:29:59.579Z,51.40
2019-04-07T19:33:04.490Z,51.60
2019-04-07T19:36:16.794Z,51.80
2019-04-07T19:39:12.984Z,52.00
2019-04-07T19:42:22.071Z,52.90
2019-04-07T19:45:13.343Z,52.80
2019-04-07T19:52:17.328Z,52.80
2019-04-07T19:55:20.003Z,52.80
2019-04-07T19:58:07.778Z,53.00
2019-04-07T20:01:08.401Z,53.10
2019-04-07T20:07:33.902Z,53.40
2019-04-07T20:10:28.714Z,53.40
2019-04-07T20:13:15.637Z,53.70
2019-04-07T20:16:17.749Z,53.90
2019-04-07T20:19:09.699Z,54.30
2019-04-07T20:22:23.876Z,54.50
2019-04-07T20:25:13.710Z,54.50
2019-04-07T20:28:03.968Z,54.90
2019-04-07T20:30:57.859Z,54.80
2019-04-07T20:33:34.463Z,55.10
2019-04-07T20:36:35.969Z,55.10
2019-04-07T20:39:56.179Z,55.30
2019-04-07T20:42:53.127Z,55.30
2019-04-07T20:45:47.484Z,55.40
2019-04-07T20:48:41.041Z,55.50
2019-04-07T20:51:38.530Z,55.50
2019-04-07T20:54:36.698Z,55.60
2019-04-07T20:57:16.331Z,55.90
2019-04-07T21:00:10.419Z,56.10
2019-04-07T21:03:14.209Z,56.40
2019-04-07T21:06:14.692Z,56.50
2019-04-07T21:09:15.260Z,56.90
2019-04-07T21:12:16.275Z,57.10
2019-04-07T21:15:19.057Z,57.30
2019-04-07T21:18:05.492Z,57.40
2019-04-07T21:21:22.161Z,57.60
2019-04-07T21:24:17.108Z,57.80
2019-04-07T21:27:10.520Z,57.60
2019-04-07T21:33:26.976Z,57.60
2019-04-07T21:36:18.599Z,57.40
2019-04-07T21:39:20.328Z,57.20
2019-04-07T21:42:10.304Z,56.90
2019-04-07T21:48:47.991Z,56.50
2019-04-07T21:51:35.291Z,56.40
2019-04-07T21:54:16.329Z,56.00
2019-04-07T21:57:00.229Z,55.90
2019-04-07T22:00:03.334Z,55.80
2019-04-07T22:02:48.338Z,55.60
2019-04-07T22:06:05.668Z,55.60
2019-04-07T22:08:43.350Z,55.40
2019-04-07T22:11:24.725Z,55.30
2019-04-07T22:14:12.611Z,55.40
2019-04-07T22:16:55.322Z,55.40
2019-04-07T22:22:35.251Z,55.70
2019-04-07T22:25:48.265Z,55.70
2019-04-07T22:28:33.297Z,55.80
2019-04-07T22:31:04.506Z,55.80
2019-04-07T22:33:53.520Z,55.70
2019-04-07T22:40:11.743Z,56.00
2019-04-07T22:42:50.318Z,56.10
2019-04-07T22:45:37.170Z,56.20
2019-04-07T22:48:18.364Z,56.30
2019-04-07T22:51:30.638Z,56.40
2019-04-07T22:54:49.884Z,56.50
2019-04-07T22:58:09.804Z,56.70
2019-04-07T23:04:52.613Z,57.30
2019-04-07T23:07:37.344Z,57.50
2019-04-07T23:10:11.223Z,57.70
2019-04-07T23:12:50.989Z,57.70
2019-04-07T23:16:06.696Z,58.10
2019-04-07T23:21:43.599Z,58.60
2019-04-07T23:24:28.881Z,59.00
2019-04-07T23:27:22.143Z,59.40
2019-04-07T23:30:29.834Z,59.60
2019-04-07T23:33:06.894Z,60.00
2019-04-07T23:36:02.483Z,60.00
2019-04-07T23:38:51.886Z,60.20
2019-04-07T23:42:09.105Z,60.20
2019-04-07T23:45:10.296Z,60.40
2019-04-07T23:47:45.400Z,60.90
2019-04-07T23:50:21.138Z,60.00
2019-04-07T23:53:30.427Z,59.60
2019-04-07T23:56:02.536Z,59.20
2019-04-07T23:58:35.713Z,58.80
